Time;durP1;ratioP1;P1;durP2;ratioP2;P2;SDS_P1;SDS_P2;PMS_P1;PMS_P2;Temp;Humidity;BMP_temperature;BMP_pressure;BME280_temperature;BME280_humidity;BME280_pressure;Samples;Min_cycle;Max_cycle;Signal;HPM_P1;HPM_P2
2023/01/16 00:01:44;;;;;;;1.77;1.27;;;;;;;4.16;100.00;99606.06;5076341;28;20029;-37
2023/01/16 00:04:09;;;;;;;3.03;1.63;;;;;;;4.10;100.00;99585.53;5076692;28;20071;-37
2023/01/16 00:06:35;;;;;;;2.97;1.50;;;;;;;4.17;100.00;99591.63;5076337;28;20033;-37
2023/01/16 00:09:02;;;;;;;;;;;;;;;4.22;100.00;99581.09;5076704;28;20491;-37
2023/01/16 00:11:27;;;;;;;4.55;1.20;;;;;;;4.21;100.00;99576.78;5076184;28;20323;-37
2023/01/16 00:13:53;;;;;;;1.97;1.07;;;;;;;4.20;100.00;99585.84;5076153;28;20036;-37
2023/01/16 00:16:19;;;;;;;3.25;1.13;;;;;;;4.14;100.00;99574.16;5076031;28;20108;-36
2023/01/16 00:18:44;;;;;;;;;;;;;;;4.17;100.00;99580.94;5076510;28;20060;-36
2023/01/16 00:21:09;;;;;;;3.00;0.90;;;;;;;4.05;100.00;99554.09;5076082;28;19955;-37
2023/01/16 00:23:35;;;;;;;2.67;1.00;;;;;;;4.06;100.00;99563.75;5076024;28;20473;-37
2023/01/16 00:26:05;;;;;;;3.72;0.98;;;;;;;4.00;100.00;99564.63;5076006;28;20032;-37
2023/01/16 00:28:32;;;;;;;3.08;1.10;;;;;;;4.07;100.00;99569.91;5076720;28;20048;-37
2023/01/16 00:30:57;;;;;;;4.57;1.33;;;;;;;4.03;100.00;99566.84;5075796;28;20039;-37
2023/01/16 00:33:23;;;;;;;3.55;1.30;;;;;;;4.02;100.00;99567.91;5075739;28;20025;-36
2023/01/16 00:35:48;;;;;;;3.43;1.03;;;;;;;4.02;100.00;99559.88;5075984;28;20032;-36
2023/01/16 00:38:13;;;;;;;2.73;1.10;;;;;;;4.01;100.00;99568.13;5075535;28;20024;-37
2023/01/16 00:40:39;;;;;;;2.73;1.13;;;;;;;3.94;100.00;99560.13;5075688;28;20112;-36
2023/01/16 00:43:04;;;;;;;4.20;0.80;;;;;;;3.90;100.00;99553.59;5075640;28;20086;-37
2023/01/16 00:45:30;;;;;;;5.20;1.10;;;;;;;3.92;100.00;99556.06;5075564;28;20040;-37
2023/01/16 00:47:55;;;;;;;3.23;1.10;;;;;;;3.90;100.00;99552.75;5075350;28;20528;-37
2023/01/16 00:50:20;;;;;;;4.03;1.30;;;;;;;3.88;100.00;99545.78;5075816;28;20488;-37
2023/01/16 00:52:46;;;;;;;4.60;1.53;;;;;;;3.84;100.00;99549.94;5075215;28;20056;-37
2023/01/16 00:55:11;;;;;;;4.37;1.17;;;;;;;3.85;100.00;99548.88;5075388;28;20024;-37
2023/01/16 00:57:36;;;;;;;2.93;1.17;;;;;;;3.85;100.00;99540.03;5075139;28;20123;-36
2023/01/16 01:00:03;;;;;;;4.33;0.90;;;;;;;3.81;100.00;99537.00;5075594;28;20123;-36
2023/01/16 01:02:28;;;;;;;4.13;1.23;;;;;;;3.75;100.00;99519.16;5075231;28;20035;-37
2023/01/16 01:04:54;;;;;;;5.10;1.67;;;;;;;3.75;100.00;99524.50;5075018;28;20037;-37
2023/01/16 01:07:19;;;;;;;5.93;1.50;;;;;;;3.73;100.00;99515.88;5075168;28;20024;-37
2023/01/16 01:09:44;;;;;;;3.17;1.20;;;;;;;3.72;100.00;99514.25;5074995;28;20400;-36
2023/01/16 01:12:10;;;;;;;5.13;1.40;;;;;;;3.63;100.00;99504.06;5075386;28;20020;-37
2023/01/16 01:14:35;;;;;;;8.77;1.43;;;;;;;3.67;100.00;99506.06;5075809;28;20025;-37
2023/01/16 01:17:00;;;;;;;3.93;1.53;;;;;;;3.61;100.00;99497.06;5074881;28;20024;-36
2023/01/16 01:19:26;;;;;;;8.10;1.50;;;;;;;3.65;100.00;99499.28;5074993;28;20086;-37
2023/01/16 01:21:51;;;;;;;4.27;1.33;;;;;;;3.60;100.00;99497.28;5075683;28;20020;-36
2023/01/16 01:24:16;;;;;;;5.53;1.40;;;;;;;3.58;100.00;99491.34;5074666;28;20081;-37
2023/01/16 01:26:42;;;;;;;5.23;1.40;;;;;;;3.55;100.00;99486.41;5074795;28;20620;-37
2023/01/16 01:29:07;;;;;;;5.93;1.60;;;;;;;3.54;100.00;99474.09;5074852;28;20033;-37
2023/01/16 01:31:32;;;;;;;3.47;1.03;;;;;;;3.47;100.00;99474.16;5074414;28;20456;-36
2023/01/16 01:33:58;;;;;;;5.63;1.40;;;;;;;3.47;100.00;99474.16;5075466;28;20366;-36
2023/01/16 01:36:23;;;;;;;5.13;1.37;;;;;;;3.45;100.00;99468.19;5074826;28;20054;-36
2023/01/16 01:38:50;;;;;;;7.63;1.60;;;;;;;3.38;100.00;99455.94;5074372;28;20071;-37
2023/01/16 01:41:17;;;;;;;4.50;1.25;;;;;;;3.34;100.00;99437.66;5074657;28;20377;-37
2023/01/16 01:43:48;;;;;;;5.50;1.27;;;;;;;3.25;100.00;99428.28;5075030;28;20055;-36
2023/01/16 01:46:20;;;;;;;2.85;1.10;;;;;;;3.40;100.00;99440.50;5074095;28;20028;-37
2023/01/16 01:48:48;;;;;;;4.57;1.05;;;;;;;3.31;100.00;99426.59;5074599;28;20082;-37
2023/01/16 01:51:18;;;;;;;5.43;1.27;;;;;;;3.34;100.00;99428.84;5074829;28;20052;-37
2023/01/16 01:54:03;;;;;;;5.13;1.17;;;;;;;3.31;100.00;99422.06;5075035;28;20338;-37
2023/01/16 01:57:01;;;;;;;5.32;1.40;;;;;;;3.29;100.00;99412.63;5073987;28;20063;-37
2023/01/16 01:59:33;;;;;;;3.22;1.13;;;;;;;3.24;100.00;99405.28;5073289;28;20109;-37
2023/01/16 02:02:01;;;;;;;4.18;1.30;;;;;;;3.22;100.00;99401.19;5074684;28;20024;-36
2023/01/16 02:04:31;;;;;;;5.80;1.15;;;;;;;3.24;100.00;99404.47;5073798;28;20028;-37
2023/01/16 02:07:01;;;;;;;2.97;1.20;;;;;;;3.19;100.00;99388.28;5074785;28;20074;-37
2023/01/16 02:09:27;;;;;;;7.95;1.42;;;;;;;3.22;100.00;99387.81;5073731;28;20512;-37
2023/01/16 02:12:02;;;;;;;5.30;1.60;;;;;;;3.22;100.00;99387.81;5074213;28;20032;-36
2023/01/16 02:14:31;;;;;;;4.70;1.05;;;;;;;3.14;100.00;99372.91;5074151;28;20036;-36
2023/01/16 02:20:14;;;;;;;3.90;1.17;;;;;;;3.20;100.00;99360.50;5074198;28;20035;-37
2023/01/16 02:22:46;;;;;;;5.47;1.20;;;;;;;3.22;100.00;99364.63;5073817;28;20020;-37
2023/01/16 02:25:25;;;;;;;7.25;1.70;;;;;;;3.14;100.00;99338.19;5074316;28;20028;-36
2023/01/16 02:28:18;;;;;;;7.35;1.50;;;;;;;3.33;100.00;99352.38;5074285;28;20036;-38
2023/01/16 02:31:14;;;;;;;3.58;1.17;;;;;;;3.29;100.00;99343.16;5073614;28;20077;-36
2023/01/16 02:34:07;;;;;;;4.75;1.00;;;;;;;3.34;100.00;99338.81;5073950;28;20035;-36
2023/01/16 02:36:56;;;;;;;4.68;1.38;;;;;;;3.38;100.00;99338.38;5073804;28;20150;-36
2023/01/16 02:39:27;;;;;;;5.43;1.08;;;;;;;3.34;100.00;99313.94;5073912;28;20029;-37
2023/01/16 02:42:29;;;;;;;4.15;1.17;;;;;;;3.37;100.00;99316.19;5074361;28;20047;-36
2023/01/16 02:45:10;;;;;;;4.40;1.05;;;;;;;3.29;100.00;99292.41;5031408;28;20041;-37
2023/01/16 02:47:43;;;;;;;4.43;1.30;;;;;;;3.38;100.00;99298.28;5031477;28;20045;-37
2023/01/16 02:50:20;;;;;;;4.05;1.20;;;;;;;3.33;100.00;99286.41;5031333;28;20045;-37
2023/01/16 02:52:52;;;;;;;5.47;1.35;;;;;;;3.31;100.00;99269.75;5031510;28;20410;-37
2023/01/16 02:55:44;;;;;;;5.20;1.40;;;;;;;3.32;100.00;99260.72;5031110;28;20043;-37
2023/01/16 02:58:11;;;;;;;4.93;1.13;;;;;;;3.20;100.00;99233.09;4938863;29;20051;-37
2023/01/16 03:00:37;;;;;;;4.18;1.00;;;;;;;3.28;100.00;99248.03;4940573;29;20044;-37
2023/01/16 03:03:03;;;;;;;2.92;0.93;;;;;;;3.26;100.00;99242.09;4940372;29;20039;-37
2023/01/16 03:05:38;;;;;;;5.57;1.52;;;;;;;3.24;100.00;99238.84;4940277;29;20480;-37
2023/01/16 03:08:15;;;;;;;4.75;1.23;;;;;;;3.23;100.00;99227.34;4940239;29;20094;-37
2023/01/16 03:10:55;;;;;;;3.45;1.20;;;;;;;3.23;100.00;99222.00;4940768;29;20114;-37
2023/01/16 03:13:49;;;;;;;5.03;1.42;;;;;;;3.28;100.00;99224.00;4940777;29;20384;-37
2023/01/16 03:16:17;;;;;;;6.13;1.23;;;;;;;3.28;100.00;99211.44;4940850;29;20471;-37
2023/01/16 03:19:16;;;;;;;5.60;1.30;;;;;;;3.13;100.00;99183.50;4940444;29;20039;-37
2023/01/16 03:22:26;;;;;;;4.10;1.40;;;;;;;3.25;100.00;99193.19;4947335;29;20122;-38
2023/01/16 03:25:19;;;;;;;5.85;1.48;;;;;;;3.23;100.00;99181.91;4959851;28;20047;-38
2023/01/16 03:28:00;;;;;;;6.20;1.50;;;;;;;3.20;100.00;99174.34;4959462;28;20175;-38
2023/01/16 03:30:36;;;;;;;4.80;1.40;;;;;;;3.23;100.00;99179.25;4959609;29;20035;-37
2023/01/16 03:33:44;;;;;;;3.53;1.30;;;;;;;3.24;100.00;99170.19;4959800;29;20035;-37
2023/01/16 03:36:21;;;;;;;5.65;1.10;;;;;;;3.17;100.00;99144.56;5054326;28;20045;-38
2023/01/16 03:38:49;;;;;;;4.53;1.25;;;;;;;3.13;100.00;99141.56;5058469;28;20041;-38
2023/01/16 03:41:21;;;;;;;2.88;1.00;;;;;;;3.15;100.00;99146.66;5059549;28;20040;-37
2023/01/16 03:43:51;;;;;;;7.28;1.33;;;;;;;3.17;100.00;99147.25;5059968;28;20051;-37
2023/01/16 03:46:24;;;;;;;5.53;1.38;;;;;;;3.11;100.00;99132.94;5059383;28;20044;-37
2023/01/16 03:48:58;;;;;;;5.35;1.30;;;;;;;3.09;100.00;99127.03;5060368;28;20116;-37
2023/01/16 03:51:26;;;;;;;3.05;1.00;;;;;;;3.10;100.00;99115.28;5059344;28;20029;-37
2023/01/16 03:54:10;;;;;;;3.83;1.10;;;;;;;3.05;100.00;99083.09;5059768;28;20488;-37
2023/01/16 03:57:01;;;;;;;5.82;1.25;;;;;;;3.12;100.00;99094.50;5063771;28;20063;-37
2023/01/16 03:59:27;;;;;;;4.88;1.10;;;;;;;3.05;100.00;99083.91;5080081;28;20079;-36
2023/01/16 04:01:58;;;;;;;6.90;1.35;;;;;;;2.99;100.00;99070.66;5079424;28;20063;-37
2023/01/16 04:04:52;;;;;;;4.45;1.20;;;;;;;3.06;100.00;99076.72;5079397;28;20024;-37
2023/01/16 04:07:37;;;;;;;5.18;1.50;;;;;;;2.98;100.00;99063.69;5069682;28;20484;-37
2023/01/16 04:10:10;;;;;;;4.35;1.27;;;;;;;2.97;100.00;99056.69;5075410;28;20028;-37
2023/01/16 04:12:40;;;;;;;4.88;1.20;;;;;;;2.98;100.00;99040.47;5076240;28;20028;-37
2023/01/16 04:15:08;;;;;;;6.03;1.40;;;;;;;2.96;100.00;99036.38;5076425;28;20465;-37
2023/01/16 04:17:37;;;;;;;5.28;1.50;;;;;;;2.96;100.00;99029.19;5076635;28;20021;-37
2023/01/16 04:20:03;;;;;;;4.57;1.10;;;;;;;2.93;100.00;99028.81;5076718;28;20029;-37
2023/01/16 04:22:29;;;;;;;3.60;1.30;;;;;;;2.91;100.00;99025.56;5076040;28;20043;-36
2023/01/16 04:24:58;;;;;;;3.20;1.27;;;;;;;2.92;100.00;99011.16;5076621;28;20495;-37
2023/01/16 04:27:24;;;;;;;4.47;1.30;;;;;;;2.86;100.00;99001.41;5075587;28;20026;-38
2023/01/16 04:29:49;;;;;;;6.10;1.60;;;;;;;2.86;100.00;99002.22;5075738;28;20032;-37
2023/01/16 04:32:14;;;;;;;6.20;1.43;;;;;;;2.84;100.00;98986.44;5075665;28;20056;-37
2023/01/16 04:34:40;;;;;;;4.83;1.40;;;;;;;2.86;100.00;98970.19;5076369;28;20458;-37
2023/01/16 04:37:05;;;;;;;4.07;1.40;;;;;;;2.90;100.00;98958.00;5075834;28;20100;-37
2023/01/16 04:39:30;;;;;;;5.27;1.43;;;;;;;2.87;100.00;98950.44;5075553;28;20043;-37
2023/01/16 04:41:56;;;;;;;4.93;1.40;;;;;;;2.88;100.00;98940.56;5076234;28;20036;-37
2023/01/16 04:44:21;;;;;;;8.83;2.07;;;;;;;2.89;100.00;98939.56;5076253;28;20036;-37
2023/01/16 04:46:46;;;;;;;5.10;1.57;;;;;;;2.87;100.00;98906.91;5057409;28;20041;-37
2023/01/16 04:49:12;;;;;;;5.50;1.63;;;;;;;2.98;100.00;98911.50;5075412;28;20538;-37
2023/01/16 04:51:38;;;;;;;3.30;1.20;;;;;;;2.98;100.00;98904.28;5075563;28;20351;-36
2023/01/16 04:54:12;;;;;;;5.68;1.65;;;;;;;3.00;100.00;98902.19;5076017;28;20036;-36
2023/01/16 04:56:38;;;;;;;3.90;1.40;;;;;;;3.06;100.00;98890.59;5073701;28;20365;-36
2023/01/16 04:59:04;;;;;;;5.20;1.40;;;;;;;3.06;100.00;98882.59;5076200;28;20028;-36
2023/01/16 05:01:34;;;;;;;3.55;1.42;;;;;;;3.13;100.00;98873.66;5075048;28;20028;-36
2023/01/16 05:04:00;;;;;;;4.82;1.45;;;;;;;3.14;100.00;98856.59;5075456;28;20484;-37
2023/01/16 05:06:26;;;;;;;6.32;1.30;;;;;;;3.20;100.00;98853.81;5075597;28;20525;-37
2023/01/16 05:08:51;;;;;;;4.13;1.33;;;;;;;3.25;100.00;98845.09;5075539;28;20078;-37
2023/01/16 05:11:16;;;;;;;6.00;1.53;;;;;;;3.28;100.00;98837.44;5075120;28;20028;-37
2023/01/16 05:13:42;;;;;;;4.07;1.30;;;;;;;3.29;100.00;98825.69;5075433;28;20031;-36
2023/01/16 05:16:07;;;;;;;2.83;1.23;;;;;;;3.32;100.00;98819.09;5075005;28;20025;-37
2023/01/16 05:18:32;;;;;;;6.10;1.47;;;;;;;3.30;100.00;98799.78;5075378;28;20460;-37
2023/01/16 05:20:59;;;;;;;4.47;1.30;;;;;;;3.41;100.00;98806.16;5072245;28;20057;-37
2023/01/16 05:23:24;;;;;;;;;;;;;;;3.47;100.00;98794.56;5075340;28;20469;-37
2023/01/16 05:25:53;;;;;;;4.27;1.40;;;;;;;3.39;100.00;98765.53;5074805;28;19915;-37
2023/01/16 05:28:19;;;;;;;6.80;1.60;;;;;;;3.49;100.00;98779.09;5075474;28;20025;-37
2023/01/16 05:30:47;;;;;;;3.63;1.67;;;;;;;3.46;100.00;98763.53;5075193;28;20506;-37
2023/01/16 05:33:12;;;;;;;5.82;1.70;;;;;;;3.53;100.00;98766.91;5074269;28;20028;-37
2023/01/16 05:35:38;;;;;;;5.93;2.13;;;;;;;3.50;100.00;98741.44;5074505;28;20027;-37
2023/01/16 05:38:03;;;;;;;6.30;1.50;;;;;;;3.55;100.00;98733.53;5075174;28;20021;-37
2023/01/16 05:40:28;;;;;;;4.23;1.43;;;;;;;3.54;100.00;98726.56;5074255;28;20025;-37
2023/01/16 05:42:54;;;;;;;4.83;1.80;;;;;;;3.57;100.00;98720.75;5074873;28;20104;-37
2023/01/16 05:45:19;;;;;;;6.43;1.60;;;;;;;3.57;100.00;98709.25;5074224;28;20025;-37
2023/01/16 05:47:44;;;;;;;7.03;1.37;;;;;;;3.58;100.00;98700.19;5074395;28;20477;-36
2023/01/16 05:50:10;;;;;;;6.37;1.53;;;;;;;3.60;100.00;98690.06;5074648;28;20024;-36
2023/01/16 05:52:35;;;;;;;4.23;1.40;;;;;;;3.59;100.00;98686.56;5074278;28;20028;-37
2023/01/16 05:55:00;;;;;;;3.40;1.00;;;;;;;3.67;100.00;98674.72;5073852;28;20472;-36
2023/01/16 05:57:25;;;;;;;4.13;1.30;;;;;;;3.68;100.00;98670.97;5074174;28;20048;-36
2023/01/16 05:59:51;;;;;;;6.63;1.13;;;;;;;3.52;100.00;98632.47;5074878;28;20024;-37
2023/01/16 06:02:18;;;;;;;2.17;0.95;;;;;;;3.68;100.00;98652.28;5074150;28;20039;-37
2023/01/16 06:04:44;;;;;;;2.83;1.20;;;;;;;3.73;100.00;98651.56;5056797;28;20025;-37
2023/01/16 06:07:10;;;;;;;3.75;1.15;;;;;;;3.74;100.00;98651.31;5074069;28;20031;-37
2023/01/16 06:09:36;;;;;;;;;;;;;;;3.78;100.00;98636.41;5074419;28;20024;-37
2023/01/16 06:12:01;;;;;;;3.38;1.02;;;;;;;3.74;100.00;98629.91;5073976;28;19959;-37
2023/01/16 06:14:26;;;;;;;3.37;1.00;;;;;;;3.69;100.00;98619.13;5074322;28;20033;-37
2023/01/16 06:16:52;;;;;;;3.50;1.00;;;;;;;3.76;100.00;98630.50;5055903;28;20075;-37
2023/01/16 06:19:17;;;;;;;3.73;1.10;;;;;;;3.73;100.00;98614.13;5074212;28;20436;-37
2023/01/16 06:21:43;;;;;;;3.63;1.20;;;;;;;3.78;100.00;98632.94;5073877;28;20514;-37
2023/01/16 06:24:09;;;;;;;;;;;;;;;3.80;100.00;98623.59;5075098;28;20082;-37
2023/01/16 06:26:34;;;;;;;3.15;1.00;;;;;;;3.78;100.00;98616.88;5073768;28;19908;-37
2023/01/16 06:28:59;;;;;;;4.30;0.90;;;;;;;3.76;100.00;98611.78;5074355;28;20024;-37
2023/01/16 06:31:25;;;;;;;5.90;2.47;;;;;;;3.74;100.00;98608.53;5073392;28;20373;-38
2023/01/16 06:33:50;;;;;;;6.33;1.40;;;;;;;3.75;100.00;98594.09;5056108;28;20037;-38
2023/01/16 06:36:15;;;;;;;5.47;1.20;;;;;;;3.75;100.00;98588.75;5074194;28;20036;-38
2023/01/16 06:38:41;;;;;;;3.23;1.00;;;;;;;3.70;100.00;98591.34;5074026;28;20039;-38
2023/01/16 06:41:06;;;;;;;3.25;1.20;;;;;;;3.70;100.00;98580.66;5073206;28;20020;-37
2023/01/16 06:43:32;;;;;;;4.30;1.37;;;;;;;3.69;100.00;98575.56;5073600;28;20469;-37
2023/01/16 06:45:57;;;;;;;3.83;1.37;;;;;;;3.60;100.00;98553.75;5073267;28;20270;-37
2023/01/16 06:48:23;;;;;;;3.30;1.60;;;;;;;3.57;100.00;98538.22;5074177;28;20380;-37
2023/01/16 06:50:49;;;;;;;2.70;1.08;;;;;;;3.65;100.00;98539.66;5073822;28;20056;-39
2023/01/16 06:53:14;;;;;;;6.63;1.52;;;;;;;3.70;100.00;98532.53;5074023;28;20029;-37
2023/01/16 06:55:41;;;;;;;4.60;1.30;;;;;;;3.69;100.00;98516.75;5073392;28;20033;-38
2023/01/16 06:58:07;;;;;;;6.88;2.40;;;;;;;3.58;100.00;98489.06;5074105;28;20044;-37
2023/01/16 07:00:34;;;;;;;5.00;1.40;;;;;;;3.63;100.00;98501.69;5073386;28;20122;-37
2023/01/16 07:03:00;;;;;;;2.42;0.98;;;;;;;3.61;100.00;98475.19;5073700;28;20028;-38
2023/01/16 07:05:27;;;;;;;3.22;1.25;;;;;;;3.61;100.00;98472.53;5073461;28;20375;-37
2023/01/16 07:07:53;;;;;;;3.70;1.23;;;;;;;3.60;100.00;98463.69;5073907;28;20060;-38
2023/01/16 07:10:21;;;;;;;3.90;1.05;;;;;;;3.59;100.00;98450.59;5073644;28;20106;-37
2023/01/16 07:12:48;;;;;;;2.35;0.95;;;;;;;3.57;100.00;98437.47;5073574;28;20024;-38
2023/01/16 07:23:33;;;;;;;4.50;1.27;;;;;;;3.55;100.00;98391.47;5072874;28;20040;-37
2023/01/16 07:26:01;;;;;;;3.15;1.02;;;;;;;3.60;100.00;98393.41;5056261;28;20025;-37
2023/01/16 07:28:28;;;;;;;6.35;1.35;;;;;;;3.57;100.00;98383.22;5072798;28;20028;-36
2023/01/16 07:30:55;;;;;;;4.10;1.10;;;;;;;3.55;100.00;98377.31;5072860;28;20034;-37
2023/01/16 07:33:20;;;;;;;2.72;0.82;;;;;;;3.58;100.00;98374.16;5073907;28;20032;-37
2023/01/16 07:35:45;;;;;;;5.63;1.20;;;;;;;3.43;100.00;98340.00;5073030;28;20029;-41
2023/01/16 07:38:11;;;;;;;5.63;1.13;;;;;;;3.55;100.00;98348.72;5073136;28;20115;-38
2023/01/16 07:40:36;;;;;;;2.53;0.93;;;;;;;3.59;100.00;98355.19;5073004;28;20112;-37
2023/01/16 07:43:02;;;;;;;3.25;1.17;;;;;;;3.54;100.00;98336.41;5073280;28;20064;-36
2023/01/16 07:45:27;;;;;;;4.63;1.58;;;;;;;3.61;100.00;98342.41;5076798;28;20445;-38
2023/01/16 07:47:53;;;;;;;2.97;0.90;;;;;;;3.64;100.00;98338.41;5076801;28;20021;-37
2023/01/16 07:50:18;;;;;;;2.27;0.93;;;;;;;3.57;100.00;98329.78;5076576;28;20028;-37
2023/01/16 07:52:44;;;;;;;3.23;0.90;;;;;;;3.67;100.00;98329.91;5076981;28;20024;-36
2023/01/16 07:55:09;;;;;;;4.68;0.88;;;;;;;3.62;100.00;98311.13;5077043;28;20052;-37
2023/01/16 07:57:36;;;;;;;4.17;1.30;;;;;;;3.69;100.00;98311.75;5076858;28;20481;-37
2023/01/16 08:00:09;;;;;;;6.35;1.45;;;;;;;3.67;100.00;98311.22;5076860;28;20123;-37
2023/01/16 08:02:34;;;;;;;6.57;1.73;;;;;;;3.67;100.00;98297.84;5059058;28;20051;-37
2023/01/16 08:04:59;;;;;;;6.70;1.13;;;;;;;3.65;100.00;98294.59;5076784;28;20033;-37
2023/01/16 08:07:25;;;;;;;6.90;1.33;;;;;;;3.67;100.00;98281.81;5076413;28;20040;-37
2023/01/16 08:09:50;;;;;;;4.40;1.00;;;;;;;3.64;100.00;98278.81;5076402;28;20028;-37
2023/01/16 08:12:15;;;;;;;3.20;1.17;;;;;;;3.66;100.00;98282.03;5075988;28;20025;-37
2023/01/16 08:14:41;;;;;;;2.43;0.80;;;;;;;3.62;100.00;98268.38;5076529;28;20662;-37
2023/01/16 08:17:06;;;;;;;3.57;1.00;;;;;;;3.69;100.00;98265.50;5075894;28;20111;-38
2023/01/16 08:19:32;;;;;;;4.23;0.90;;;;;;;3.65;100.00;98248.34;5076463;28;20315;-37
2023/01/16 08:21:57;;;;;;;2.43;0.93;;;;;;;3.68;100.00;98251.34;5076174;28;20036;-37
2023/01/16 08:24:25;;;;;;;2.43;1.00;;;;;;;3.70;100.00;98238.53;5076673;28;20107;-38
2023/01/16 08:26:50;;;;;;;4.50;0.95;;;;;;;3.68;100.00;98229.97;5075730;28;20286;-37
2023/01/16 08:29:15;;;;;;;3.50;1.05;;;;;;;3.68;100.00;98218.47;5076278;28;20465;-37
2023/01/16 08:31:41;;;;;;;2.87;1.10;;;;;;;3.71;100.00;98216.13;5075964;28;20143;-36
2023/01/16 08:34:06;;;;;;;3.87;0.93;;;;;;;3.73;100.00;98213.19;5076004;28;20354;-36
2023/01/16 08:36:32;;;;;;;5.07;1.60;;;;;;;3.73;100.00;98203.28;5075771;28;20475;-36
2023/01/16 08:38:57;;;;;;;2.33;1.07;;;;;;;3.75;100.00;98187.81;5076447;28;20527;-36
2023/01/16 08:52:30;;;;;;;2.75;0.80;;;;;;;3.79;100.00;98170.19;5075910;28;20444;-37
2023/01/16 08:54:57;;;;;;;2.85;0.98;;;;;;;3.81;100.00;98178.00;5075974;28;20362;-37
2023/01/16 08:57:22;;;;;;;3.30;0.98;;;;;;;3.84;100.00;98172.94;5075277;28;20047;-37
2023/01/16 08:59:47;;;;;;;3.00;1.17;;;;;;;3.87;100.00;98172.44;5075776;28;20024;-37
2023/01/16 09:02:14;;;;;;;5.20;1.17;;;;;;;3.88;100.00;98166.03;5075397;28;20090;-37
2023/01/16 09:04:40;;;;;;;4.10;1.05;;;;;;;3.84;100.00;98151.53;5075114;28;20035;-37
2023/01/16 09:07:05;;;;;;;3.75;1.00;;;;;;;3.91;100.00;98164.72;5075342;28;20380;-37
2023/01/16 09:09:31;;;;;;;2.77;0.97;;;;;;;3.82;100.00;98142.97;5075038;28;20025;-37
2023/01/16 09:14:41;;;;;;;1.65;0.70;;;;;;;3.94;100.00;98155.38;5075665;28;20131;-37
2023/01/16 09:17:08;;;;;;;2.63;0.80;;;;;;;3.94;100.00;98158.03;5075099;28;20508;-37
2023/01/16 09:19:33;;;;;;;;;;;;;;;4.00;100.00;98160.53;5075758;28;20029;-37
2023/01/16 09:21:58;;;;;;;2.45;0.88;;;;;;;3.97;100.00;98149.53;5074708;28;20257;-37
2023/01/16 09:24:24;;;;;;;3.23;0.90;;;;;;;3.92;100.00;98154.84;5075847;28;20036;-37
2023/01/16 09:26:50;;;;;;;1.55;0.70;;;;;;;3.81;100.00;98138.69;5075676;28;20032;-37
2023/01/16 09:29:15;;;;;;;3.60;1.13;;;;;;;3.89;100.00;98148.09;5056905;28;20045;-37
2023/01/16 09:31:41;;;;;;;3.80;0.90;;;;;;;3.90;100.00;98147.03;5074804;28;20031;-46
2023/01/16 09:34:06;;;;;;;1.70;0.50;;;;;;;3.86;100.00;98140.63;5075026;28;20108;-37
2023/01/16 09:36:31;;;;;;;2.07;0.70;;;;;;;3.87;100.00;98147.56;5074632;28;20133;-37
2023/01/16 09:38:57;;;;;;;1.33;0.70;;;;;;;3.83;100.00;98128.53;5074997;28;20024;-37
2023/01/16 09:44:13;;;;;;;3.42;0.60;;;;;;;3.82;100.00;98120.78;5075140;28;20040;-37
2023/01/16 09:46:49;;;;;;;1.52;0.60;;;;;;;3.84;100.00;98124.00;5075108;28;20032;-37
2023/01/16 09:49:31;;;;;;;2.90;1.08;;;;;;;3.90;100.00;98122.97;5075289;28;20449;-37
2023/01/16 10:00:32;;;;;;;0.97;0.50;;;;;;;3.98;100.00;98105.69;5074265;28;20147;-37
2023/01/16 10:02:58;;;;;;;1.63;0.60;;;;;;;3.97;100.00;98096.06;5074080;28;20024;-37
2023/01/16 10:05:33;;;;;;;1.90;0.60;;;;;;;3.91;100.00;98086.38;5074411;28;20033;-37
2023/01/16 10:08:18;;;;;;;0.90;0.40;;;;;;;3.99;100.00;98094.72;5073794;28;20082;-37
2023/01/16 10:11:36;;;;;;;1.50;0.50;;;;;;;4.09;100.00;98094.78;5074327;28;20025;-36
2023/01/16 10:14:19;;;;;;;1.67;0.60;;;;;;;4.05;100.00;98082.19;4973459;28;20042;-36
2023/01/16 10:17:04;;;;;;;0.75;0.47;;;;;;;4.13;100.00;98087.88;4973239;28;20090;-37
2023/01/16 10:19:51;;;;;;;1.15;0.60;;;;;;;4.17;100.00;98082.03;4973241;28;20038;-36
2023/01/16 10:22:25;;;;;;;0.40;0.40;;;;;;;4.20;100.00;98070.81;4973433;28;20472;-36
2023/01/16 10:25:20;;;;;;;1.33;0.30;;;;;;;4.25;100.00;98063.63;4973416;28;20074;-37
2023/01/16 10:27:54;;;;;;;0.77;0.50;;;;;;;4.26;100.00;98049.19;4973108;28;20379;-36
2023/01/16 10:30:50;;;;;;;0.80;0.40;;;;;;;4.41;100.00;98053.84;4973256;28;20043;-37
2023/01/16 10:33:34;;;;;;;0.95;0.52;;;;;;;4.58;100.00;98048.28;4960217;28;20042;-36
2023/01/16 10:36:03;;;;;;;1.20;0.50;;;;;;;4.66;100.00;98042.47;4973319;28;20067;-37
2023/01/16 10:38:44;;;;;;;0.68;0.40;;;;;;;4.76;100.00;98031.78;4972577;28;20042;-37
2023/01/16 10:49:45;;;;;;;0.70;0.43;;;;;;;4.85;100.00;98024.88;5029679;28;20115;-37
2023/01/16 10:52:10;;;;;;;1.15;0.45;;;;;;;4.88;100.00;98019.00;5074109;28;20424;-37
2023/01/16 10:54:37;;;;;;;1.35;0.43;;;;;;;4.82;100.00;98003.16;5073300;28;20033;-37
2023/01/16 10:57:14;;;;;;;0.57;0.40;;;;;;;4.78;100.00;97994.88;5072916;28;20033;-38
2023/01/16 10:59:39;;;;;;;;;;;;;;;4.91;100.00;98002.38;5074464;28;20377;-37
2023/01/16 11:02:17;;;;;;;0.73;0.30;;;;;;;4.86;100.00;97998.91;5073347;28;19919;-37
2023/01/16 11:04:43;;;;;;;0.47;0.30;;;;;;;4.83;100.00;97986.84;5073586;28;20468;-37
2023/01/16 11:07:17;;;;;;;2.13;0.40;;;;;;;4.84;100.00;97985.78;5073120;28;20026;-37
2023/01/16 11:09:45;;;;;;;2.00;0.40;;;;;;;4.82;100.00;97984.41;5073310;28;20037;-37
2023/01/16 11:18:29;;;;;;;0.75;0.40;;;;;;;4.82;100.00;97966.47;5074776;28;20039;-37
2023/01/16 11:21:15;;;;;;;0.30;0.30;;;;;;;4.84;100.00;97952.84;5077296;28;20119;-36
2023/01/16 11:23:44;;;;;;;0.50;0.40;;;;;;;4.87;100.00;97939.72;5076747;28;20067;-36
2023/01/16 11:26:11;;;;;;;0.50;0.40;;;;;;;4.86;100.00;97946.16;5077749;28;20104;-37
2023/01/16 11:28:37;;;;;;;2.58;0.30;;;;;;;4.89;100.00;97926.88;5077750;28;20025;-37
2023/01/16 11:31:21;;;;;;;0.50;0.40;;;;;;;4.91;100.00;97932.75;5076839;28;20094;-37
2023/01/16 11:34:00;;;;;;;0.57;0.30;;;;;;;4.91;100.00;97929.28;5077896;28;20400;-36
2023/01/16 11:36:29;;;;;;;0.25;0.25;;;;;;;4.91;100.00;97915.91;5077459;28;20078;-37
2023/01/16 11:38:55;;;;;;;0.88;0.40;;;;;;;4.91;100.00;97907.88;5076998;28;20384;-37
2023/01/16 11:41:31;;;;;;;0.68;0.30;;;;;;;4.94;100.00;97903.88;5077164;28;20028;-37
2023/01/16 11:46:58;;;;;;;1.45;0.57;;;;;;;5.10;100.00;97897.44;5077102;28;20121;-37
2023/01/16 11:49:27;;;;;;;0.40;0.40;;;;;;;5.12;100.00;97892.63;5076704;28;20135;-36
2023/01/16 11:51:54;;;;;;;0.32;0.30;;;;;;;5.15;100.00;97894.75;5076673;28;20032;-37
2023/01/16 11:54:26;;;;;;;1.00;0.32;;;;;;;5.18;100.00;97880.84;5076361;28;20036;-37
2023/01/16 11:57:15;;;;;;;3.05;1.30;;;;;;;5.24;100.00;97879.78;5077178;28;20032;-37
2023/01/16 11:59:54;;;;;;;0.60;0.43;;;;;;;5.21;100.00;97858.06;5076822;28;20551;-37
2023/01/16 12:02:41;;;;;;;2.05;0.40;;;;;;;5.25;100.00;97864.50;5076481;28;20029;-37
2023/01/16 12:05:53;;;;;;;0.57;0.43;;;;;;;5.22;100.00;97855.13;5076767;28;20028;-37
2023/01/16 12:08:30;;;;;;;0.82;0.40;;;;;;;5.16;100.00;97848.16;5076444;28;20375;-38
2023/01/16 12:11:08;;;;;;;1.10;0.30;;;;;;;5.24;100.00;97854.84;5076077;28;20036;-37
2023/01/16 12:17:09;;;;;;;0.75;0.40;;;;;;;5.28;100.00;97834.50;5076601;28;20120;-37
2023/01/16 12:19:55;;;;;;;0.70;0.40;;;;;;;5.24;100.00;97838.78;5076194;28;20037;-37
2023/01/16 12:22:50;;;;;;;0.47;0.38;;;;;;;5.29;100.00;97831.53;5076681;28;20028;-37
2023/01/16 12:25:37;;;;;;;0.70;0.40;;;;;;;5.20;100.00;97806.38;5075812;28;20082;-38
2023/01/16 12:28:21;;;;;;;;;;;;;;;5.34;100.00;97817.34;5077003;28;20025;-38
2023/01/16 12:31:29;;;;;;;0.47;0.35;;;;;;;5.30;100.00;97814.38;5075384;28;19912;-37
2023/01/16 12:34:23;;;;;;;1.05;0.57;;;;;;;5.26;100.00;97791.88;5076759;28;20024;-37
2023/01/16 12:37:04;;;;;;;1.98;0.40;;;;;;;5.34;100.00;97807.41;5075965;28;20017;-37
2023/01/16 12:39:44;;;;;;;1.38;0.40;;;;;;;5.37;100.00;97806.09;5075945;28;20029;-37
2023/01/16 12:45:08;;;;;;;1.23;0.50;;;;;;;5.44;100.00;97787.84;5075846;28;20075;-37
2023/01/16 12:48:01;;;;;;;1.00;0.50;;;;;;;5.47;100.00;97779.25;5075747;28;20060;-37
2023/01/16 12:50:42;;;;;;;0.45;0.30;;;;;;;5.47;100.00;97762.38;5014255;28;20116;-37
2023/01/16 12:53:28;;;;;;;0.93;0.40;;;;;;;5.53;100.00;97764.75;5014295;28;20041;-37